Time;durP1;ratioP1;P1;durP2;ratioP2;P2;SDS_P1;SDS_P2;PMS_P1;PMS_P2;Temp;Humidity;BMP_temperature;BMP_pressure;BME280_temperature;BME280_humidity;BME280_pressure;Samples;Min_cycle;Max_cycle;Signal;HPM_P1;HPM_P2
2021/10/13 00:02:09;;;;;;;30.30;21.50;;;;;;;14.34;45.74;99815.88;117274;1185;22324;-54
2021/10/13 00:04:37;;;;;;;27.00;21.30;;;;;;;14.34;45.80;99813.23;117370;1183;22623;-54
2021/10/13 00:07:06;;;;;;;27.90;22.70;;;;;;;14.33;45.70;99810.64;117361;1186;21858;-54
2021/10/13 00:09:34;;;;;;;28.60;22.60;;;;;;;14.31;45.85;99808.02;117255;1186;21858;-55
2021/10/13 00:12:03;;;;;;;28.30;21.90;;;;;;;14.30;45.85;99804.02;117356;1182;22616;-55
2021/10/13 00:14:31;;;;;;;30.30;21.40;;;;;;;14.29;45.72;99799.80;117297;1183;23458;-55
2021/10/13 00:17:03;;;;;;;26.60;22.40;;;;;;;14.29;45.82;99798.73;117300;1185;21857;-55
2021/10/13 00:19:32;;;;;;;27.70;21.20;;;;;;;14.32;45.77;99795.99;117354;1185;22344;-55
2021/10/13 00:22:00;;;;;;;27.60;21.80;;;;;;;14.30;45.87;99801.73;117369;1185;22917;-56
2021/10/13 00:24:28;;;;;;;30.00;22.40;;;;;;;14.27;45.82;99796.52;117342;1182;23553;-55
2021/10/13 00:26:56;;;;;;;31.90;22.50;;;;;;;14.26;45.90;99794.63;117226;1183;21919;-55
2021/10/13 00:29:25;;;;;;;30.10;21.40;;;;;;;14.27;45.83;99800.21;117282;1186;22937;-55
2021/10/13 00:31:53;;;;;;;31.00;23.50;;;;;;;14.27;45.85;99800.93;117404;1186;23619;-55
2021/10/13 00:34:21;;;;;;;29.70;23.00;;;;;;;14.26;45.94;99802.90;117319;1176;23460;-55
2021/10/13 00:36:49;;;;;;;30.00;22.60;;;;;;;14.24;45.90;99805.09;117341;1185;21857;-55
2021/10/13 00:39:17;;;;;;;28.10;23.10;;;;;;;14.22;45.86;99803.40;117296;1182;22613;-55
2021/10/13 00:41:46;;;;;;;27.50;22.30;;;;;;;14.23;45.84;99804.98;117325;1183;23553;-55
2021/10/13 00:44:14;;;;;;;29.40;22.40;;;;;;;14.21;45.95;99805.38;117306;1185;23460;-55
2021/10/13 00:46:42;;;;;;;28.70;21.80;;;;;;;14.22;45.98;99804.98;117247;1179;23443;-55
2021/10/13 00:49:10;;;;;;;30.00;24.30;;;;;;;14.22;45.96;99804.83;117217;1187;21866;-55
2021/10/13 00:51:39;;;;;;;29.70;23.40;;;;;;;14.22;46.02;99809.95;117242;1185;23460;-55
2021/10/13 00:54:09;;;;;;;29.20;23.10;;;;;;;14.22;45.97;99808.71;117287;1185;23556;-55
2021/10/13 00:56:38;;;;;;;30.20;23.10;;;;;;;14.21;46.07;99808.55;117264;1186;23478;-55
2021/10/13 00:59:06;;;;;;;28.80;23.80;;;;;;;14.22;46.02;99805.37;117219;1185;21871;-56
2021/10/13 01:01:49;;;;;;;30.60;23.30;;;;;;;14.21;46.16;99803.61;117285;1185;22917;-56
2021/10/13 01:04:23;;;;;;;32.90;22.90;;;;;;;14.21;46.11;99804.50;117201;1186;21856;-56
2021/10/13 01:06:51;;;;;;;31.00;23.40;;;;;;;14.22;46.03;99802.72;117298;1182;22620;-56
2021/10/13 01:09:46;;;;;;;29.30;23.80;;;;;;;14.20;46.18;99806.66;117370;1183;23450;-56
2021/10/13 01:12:38;;;;;;;32.70;23.60;;;;;;;14.20;46.12;99808.09;117270;1185;22821;-56
2021/10/13 01:15:25;;;;;;;29.50;23.60;;;;;;;14.19;46.13;99811.64;117269;1182;21954;-57
2021/10/13 01:18:02;;;;;;;29.90;22.80;;;;;;;14.20;46.12;99812.66;117310;1185;22847;-57
2021/10/13 01:20:39;;;;;;;28.70;24.60;;;;;;;14.20;46.21;99812.32;117323;1185;23596;-57
2021/10/13 01:23:28;;;;;;;27.30;22.70;;;;;;;14.21;46.10;99818.09;117303;1186;21906;-57
2021/10/13 01:26:16;;;;;;;29.80;23.20;;;;;;;14.20;46.12;99816.72;117326;1185;22623;-57
2021/10/13 01:28:45;;;;;;;30.70;22.70;;;;;;;14.19;46.19;99815.34;117324;1184;21858;-57
2021/10/13 01:31:16;;;;;;;33.80;24.80;;;;;;;14.17;46.29;99810.82;117218;1186;21861;-58
2021/10/13 01:34:07;;;;;;;33.80;24.40;;;;;;;14.15;46.16;99803.13;117355;1182;23637;-58
2021/10/13 01:37:10;;;;;;;31.20;24.00;;;;;;;14.13;46.34;99796.84;117320;1183;21848;-58
2021/10/13 01:39:41;;;;;;;34.10;24.10;;;;;;;14.10;46.28;99795.54;117126;1186;23547;-58
2021/10/13 01:42:12;;;;;;;39.70;23.80;;;;;;;14.08;46.26;99793.86;117324;1189;21854;-58
2021/10/13 01:44:40;;;;;;;32.40;25.40;;;;;;;14.06;46.28;99795.18;117351;1185;21867;-58
2021/10/13 01:47:09;;;;;;;33.00;24.80;;;;;;;14.03;46.27;99794.02;117337;1185;23676;-58
2021/10/13 01:49:38;;;;;;;37.00;25.30;;;;;;;14.02;46.34;99795.30;117325;1178;23579;-58
2021/10/13 01:52:07;;;;;;;34.60;24.70;;;;;;;14.00;46.33;99792.55;117230;1189;23638;-58
2021/10/13 01:54:39;;;;;;;34.30;25.40;;;;;;;13.99;46.28;99791.89;117300;1185;21867;-58
2021/10/13 01:57:07;;;;;;;37.10;26.50;;;;;;;13.97;46.33;99788.06;117277;1185;23007;-58
2021/10/13 01:59:36;;;;;;;32.50;25.70;;;;;;;13.95;46.40;99790.27;117349;1186;21868;-58
2021/10/13 02:02:04;;;;;;;37.00;27.00;;;;;;;13.92;46.44;99786.45;117302;1185;21882;-58
2021/10/13 02:04:37;;;;;;;34.90;26.10;;;;;;;13.90;46.34;99786.21;117354;1183;23544;-58
2021/10/13 02:07:11;;;;;;;36.80;26.50;;;;;;;13.89;46.35;99785.56;117383;1182;23566;-58
2021/10/13 02:09:41;;;;;;;35.50;27.10;;;;;;;13.87;46.35;99783.51;117282;1182;23590;-58
2021/10/13 02:12:09;;;;;;;35.60;27.40;;;;;;;13.85;46.47;99784.63;117139;1186;21867;-58
2021/10/13 02:14:38;;;;;;;33.80;26.80;;;;;;;13.87;46.35;99784.91;117138;1189;21856;-60
2021/10/13 02:17:12;;;;;;;40.40;27.40;;;;;;;13.91;46.30;99786.35;117253;1185;23547;-60
2021/10/13 02:19:40;;;;;;;34.90;26.70;;;;;;;13.93;46.21;99782.94;117277;1182;23547;-60
2021/10/13 02:22:09;;;;;;;36.70;27.40;;;;;;;13.91;46.32;99786.36;117254;1189;21855;-60
2021/10/13 02:24:48;;;;;;;37.60;27.30;;;;;;;13.89;46.35;99786.07;117257;1186;23557;-60
2021/10/13 02:27:34;;;;;;;38.70;27.60;;;;;;;13.81;46.49;99788.81;117301;1186;21855;-60
2021/10/13 02:30:03;;;;;;;37.20;27.20;;;;;;;13.79;46.52;99790.63;117344;1186;23465;-60
2021/10/13 02:32:31;;;;;;;41.90;29.60;;;;;;;13.81;46.48;99791.98;117352;1186;21913;-60
2021/10/13 02:35:00;;;;;;;38.20;29.60;;;;;;;13.83;46.58;99793.34;117356;1183;23593;-60
2021/10/13 02:37:28;;;;;;;38.00;28.10;;;;;;;13.83;46.46;99797.03;117298;1186;23545;-60
2021/10/13 02:39:58;;;;;;;37.20;29.00;;;;;;;13.83;46.43;99800.37;117285;1185;22917;-60
2021/10/13 02:42:26;;;;;;;39.20;27.90;;;;;;;13.83;46.51;99797.39;117285;1185;24179;-60
2021/10/13 02:44:58;;;;;;;47.40;29.80;;;;;;;13.83;46.50;99797.37;117360;1183;24002;-60
2021/10/13 02:47:28;;;;;;;41.20;30.70;;;;;;;13.84;46.62;99797.17;117296;1186;23548;-60
2021/10/13 02:50:11;;;;;;;39.40;29.30;;;;;;;13.83;46.44;99795.09;117347;1182;21860;-60
2021/10/13 02:52:44;;;;;;;34.20;28.20;;;;;;;13.81;46.53;99792.15;117299;1182;21972;-60
2021/10/13 02:55:19;;;;;;;36.60;28.50;;;;;;;13.81;46.52;99790.05;117283;1183;21859;-59
2021/10/13 02:58:18;;;;;;;38.40;29.10;;;;;;;13.86;46.41;99788.30;117306;1183;24194;-60
2021/10/13 03:00:47;;;;;;;36.50;28.70;;;;;;;13.80;46.53;99784.60;117243;1183;23063;-60
2021/10/13 03:03:19;;;;;;;38.60;30.70;;;;;;;13.79;46.49;99783.77;117352;1183;22107;-60
2021/10/13 03:05:48;;;;;;;40.60;30.30;;;;;;;13.79;46.56;99784.29;117367;1182;22927;-60
2021/10/13 03:08:18;;;;;;;38.50;29.60;;;;;;;13.77;46.57;99777.50;117302;1186;23567;-60
2021/10/13 03:10:46;;;;;;;41.00;30.20;;;;;;;13.78;46.41;99774.29;117338;1186;22907;-60
2021/10/13 03:13:20;;;;;;;39.30;31.60;;;;;;;13.75;46.61;99771.92;117160;1185;23576;-59
2021/10/13 03:15:49;;;;;;;42.70;31.00;;;;;;;13.79;46.59;99771.95;117268;1182;22658;-60
2021/10/13 03:18:17;;;;;;;40.30;30.10;;;;;;;13.74;46.51;99770.17;117165;1186;22714;-60
2021/10/13 03:20:45;;;;;;;39.10;30.70;;;;;;;13.73;46.46;99768.46;117246;1186;21857;-60
2021/10/13 03:23:13;;;;;;;45.00;32.90;;;;;;;13.67;46.43;99768.70;117281;1185;22919;-60
2021/10/13 03:25:42;;;;;;;41.60;31.40;;;;;;;13.64;46.59;99770.92;117105;1190;22093;-60
2021/10/13 03:28:12;;;;;;;42.30;31.80;;;;;;;13.61;46.64;99770.64;117303;1185;23467;-60
2021/10/13 03:30:43;;;;;;;41.80;31.90;;;;;;;13.61;46.66;99770.65;117316;1186;24152;-58
2021/10/13 03:33:12;;;;;;;46.30;34.10;;;;;;;13.59;46.70;99770.55;117370;1188;21854;-60
2021/10/13 03:35:40;;;;;;;43.00;32.00;;;;;;;13.58;46.58;99766.71;117361;1181;21891;-58
2021/10/13 03:38:09;;;;;;;44.10;32.50;;;;;;;13.57;46.59;99767.08;117269;1183;22645;-58
2021/10/13 03:40:38;;;;;;;41.50;32.60;;;;;;;13.58;46.71;99766.54;117353;1186;23894;-59
2021/10/13 03:43:08;;;;;;;46.10;33.80;;;;;;;13.58;46.82;99764.60;117344;1186;24227;-60
2021/10/13 03:45:37;;;;;;;;;;;;;;;13.56;46.77;99763.23;117382;1185;22298;-58
2021/10/13 03:48:05;;;;;;;40.40;31.70;;;;;;;13.55;46.69;99767.13;117344;1181;21876;-59
2021/10/13 03:50:33;;;;;;;47.40;33.40;;;;;;;13.54;46.72;99761.38;117273;1186;23560;-58
2021/10/13 03:53:02;;;;;;;44.40;34.90;;;;;;;13.52;46.79;99763.55;117265;1186;21866;-59
2021/10/13 03:55:30;;;;;;;42.80;32.20;;;;;;;13.52;46.71;99763.91;118499;1185;23567;-59
2021/10/13 03:57:59;;;;;;;45.20;32.70;;;;;;;13.52;46.83;99763.02;117274;1185;24156;-58
2021/10/13 04:00:28;;;;;;;46.50;33.50;;;;;;;13.52;46.83;99762.48;117371;1183;21884;-59
2021/10/13 04:02:57;;;;;;;45.70;32.70;;;;;;;13.51;46.87;99760.23;117298;1182;23556;-57
2021/10/13 04:05:25;;;;;;;45.00;32.00;;;;;;;13.51;46.85;99758.83;117322;1185;21851;-58
2021/10/13 04:07:53;;;;;;;45.20;34.10;;;;;;;13.53;46.88;99760.16;117310;1182;22857;-57
2021/10/13 04:10:22;;;;;;;45.90;33.30;;;;;;;13.53;46.83;99759.45;117340;1182;21918;-57
2021/10/13 04:12:50;;;;;;;46.20;33.40;;;;;;;13.52;46.83;99756.14;117311;1185;23547;-56
2021/10/13 04:15:19;;;;;;;41.90;33.10;;;;;;;13.52;46.86;99758.61;117225;1183;23544;-57
2021/10/13 04:17:47;;;;;;;49.90;34.10;;;;;;;13.53;46.90;99756.45;117391;1185;23573;-56
2021/10/13 04:20:15;;;;;;;47.30;32.30;;;;;;;13.52;47.01;99755.62;117297;1185;23555;-55
2021/10/13 04:22:44;;;;;;;45.70;33.50;;;;;;;13.52;47.03;99753.31;117304;1185;23544;-56
2021/10/13 04:25:12;;;;;;;47.70;32.30;;;;;;;13.53;47.03;99753.10;117567;1185;23556;-56
2021/10/13 04:27:41;;;;;;;47.10;33.50;;;;;;;13.55;47.07;99758.85;117355;1186;23557;-56
2021/10/13 04:30:10;;;;;;;48.70;33.10;;;;;;;13.57;46.94;99757.40;117285;1186;21860;-56
2021/10/13 04:32:38;;;;;;;45.90;32.60;;;;;;;13.56;46.92;99759.88;117326;1182;22920;-56
2021/10/13 04:35:07;;;;;;;44.60;34.40;;;;;;;13.56;47.00;99762.52;117271;1182;22917;-56
2021/10/13 04:37:35;;;;;;;47.20;33.40;;;;;;;13.56;47.02;99763.07;117296;1185;21861;-56
2021/10/13 04:40:04;;;;;;;43.90;30.90;;;;;;;13.55;47.07;99768.40;117295;1186;22922;-56
2021/10/13 04:42:33;;;;;;;49.20;31.80;;;;;;;13.54;47.04;99771.77;117311;1185;21867;-59
2021/10/13 04:45:01;;;;;;;40.20;32.80;;;;;;;13.54;47.01;99773.34;117396;1186;21870;-59
2021/10/13 04:47:30;;;;;;;44.30;31.60;;;;;;;13.53;47.14;99775.84;117350;1182;23560;-59
2021/10/13 04:49:58;;;;;;;41.70;33.20;;;;;;;13.50;46.97;99777.53;117314;1189;21866;-59
2021/10/13 04:52:28;;;;;;;43.10;32.90;;;;;;;13.48;47.03;99779.19;117351;1185;22740;-59
2021/10/13 04:54:56;;;;;;;45.00;32.50;;;;;;;13.45;47.10;99785.64;117337;1184;22627;-59
2021/10/13 04:57:24;;;;;;;43.60;31.60;;;;;;;13.44;47.21;99786.72;117262;1182;22917;-59
2021/10/13 04:59:54;;;;;;;44.00;33.30;;;;;;;13.45;47.17;99794.10;117269;1189;21903;-59
2021/10/13 05:02:23;;;;;;;;;;;;;;;13.46;47.25;99799.52;117337;1185;21949;-59
2021/10/13 05:04:51;;;;;;;45.20;33.10;;;;;;;13.46;47.14;99800.03;117344;1186;23547;-59
2021/10/13 05:07:19;;;;;;;39.10;30.90;;;;;;;13.46;47.09;99799.34;117258;1188;21857;-59
2021/10/13 05:09:47;;;;;;;44.50;33.20;;;;;;;13.46;47.19;99800.43;117337;1184;21862;-59
2021/10/13 05:12:16;;;;;;;44.40;34.50;;;;;;;13.45;47.28;99802.56;117260;1187;21857;-59
2021/10/13 05:14:55;;;;;;;42.00;33.10;;;;;;;13.44;47.28;99801.38;117338;1186;23542;-59
2021/10/13 05:17:44;;;;;;;44.90;33.80;;;;;;;13.47;47.15;99806.55;117326;1185;23445;-59
2021/10/13 05:20:12;;;;;;;46.70;35.20;;;;;;;13.44;47.18;99805.08;117280;1183;23544;-59
2021/10/13 05:22:40;;;;;;;44.50;34.50;;;;;;;13.44;47.22;99801.18;117443;1183;21847;-59
2021/10/13 05:25:09;;;;;;;48.00;34.40;;;;;;;13.42;47.35;99802.66;117327;1182;23583;-59
2021/10/13 05:27:37;;;;;;;41.60;34.20;;;;;;;13.43;47.19;99802.29;117336;1183;23441;-59
2021/10/13 05:30:06;;;;;;;47.40;35.80;;;;;;;13.42;47.21;99801.06;117289;1183;21856;-59
2021/10/13 05:32:35;;;;;;;49.80;36.20;;;;;;;13.41;47.25;99798.96;117322;1185;24152;-59
2021/10/13 05:35:04;;;;;;;43.40;34.60;;;;;;;13.39;47.22;99801.85;117298;1182;23554;-58
2021/10/13 05:37:32;;;;;;;48.10;37.00;;;;;;;13.37;47.45;99798.55;117369;1178;23631;-59
2021/10/13 05:40:00;;;;;;;47.30;35.50;;;;;;;13.34;47.51;99797.77;117273;1182;23560;-59
2021/10/13 05:42:29;;;;;;;48.20;36.10;;;;;;;13.34;47.30;99796.36;117475;1183;23544;-57
2021/10/13 05:44:57;;;;;;;50.50;37.10;;;;;;;13.34;47.39;99799.73;117349;1185;23567;-59
2021/10/13 05:47:25;;;;;;;46.40;36.90;;;;;;;13.33;47.33;99800.62;117319;1185;22614;-58
2021/10/13 05:49:53;;;;;;;48.10;36.20;;;;;;;13.37;47.44;99803.68;117287;1183;21859;-58
2021/10/13 05:52:22;;;;;;;53.50;38.50;;;;;;;13.34;47.23;99800.40;117343;1182;23586;-59
2021/10/13 05:54:51;;;;;;;57.60;37.70;;;;;;;13.34;47.45;99803.42;117302;1183;21860;-58
2021/10/13 05:57:19;;;;;;;49.10;36.90;;;;;;;13.32;47.52;99805.41;117291;1182;23548;-55
2021/10/13 05:59:55;;;;;;;47.50;36.60;;;;;;;13.33;47.57;99803.45;117282;1183;24166;-55
2021/10/13 06:02:24;;;;;;;44.90;36.10;;;;;;;13.37;47.48;99804.00;117473;1182;22040;-56
2021/10/13 06:04:53;;;;;;;47.50;36.60;;;;;;;13.39;47.59;99805.36;117316;1184;21845;-56
2021/10/13 06:07:21;;;;;;;44.50;34.70;;;;;;;13.41;47.58;99806.02;117326;1183;23557;-56
2021/10/13 06:09:50;;;;;;;55.70;40.00;;;;;;;13.45;47.55;99807.87;117298;1182;23566;-56
2021/10/13 06:12:19;;;;;;;50.70;36.50;;;;;;;13.46;47.40;99804.81;117263;1185;22619;-55
2021/10/13 06:14:47;;;;;;;48.10;36.50;;;;;;;13.46;47.43;99804.27;117327;1185;23544;-55
2021/10/13 06:17:15;;;;;;;45.50;36.40;;;;;;;13.44;47.49;99803.30;117344;1185;23648;-55
2021/10/13 06:19:44;;;;;;;48.40;35.20;;;;;;;13.45;47.59;99810.32;117332;1185;24241;-55
2021/10/13 06:22:12;;;;;;;48.40;36.70;;;;;;;13.45;47.50;99808.21;117297;1185;23545;-55
2021/10/13 06:24:40;;;;;;;49.00;38.00;;;;;;;13.45;47.70;99809.09;117329;1185;23451;-56
2021/10/13 06:27:08;;;;;;;52.10;38.40;;;;;;;13.47;47.54;99806.90;117327;1180;22958;-55
2021/10/13 06:29:37;;;;;;;48.30;36.40;;;;;;;13.47;47.48;99805.29;117330;1186;23547;-55
2021/10/13 06:32:06;;;;;;;45.20;37.20;;;;;;;13.48;47.57;99807.20;117315;1182;21854;-55
2021/10/13 06:34:35;;;;;;;49.40;37.90;;;;;;;13.48;47.57;99806.67;117367;1183;21867;-55
2021/10/13 06:37:03;;;;;;;51.60;38.80;;;;;;;13.46;47.66;99803.04;117344;1185;21901;-56
2021/10/13 06:39:34;;;;;;;49.10;37.00;;;;;;;13.46;47.60;99803.41;117359;1185;23571;-59
2021/10/13 06:42:03;;;;;;;57.80;40.90;;;;;;;13.48;47.65;99804.55;117340;1183;22817;-56
2021/10/13 06:44:31;;;;;;;58.00;40.40;;;;;;;13.48;47.60;99802.98;117354;1185;22084;-58
2021/10/13 06:47:00;;;;;;;55.10;40.90;;;;;;;13.47;47.64;99803.89;117362;1182;21934;-58
2021/10/13 06:49:29;;;;;;;55.70;41.00;;;;;;;13.46;47.60;99799.36;117356;1182;21925;-59
2021/10/13 06:51:57;;;;;;;52.00;41.40;;;;;;;13.44;47.67;99797.47;117282;1182;23440;-61
2021/10/13 06:54:26;;;;;;;51.60;40.80;;;;;;;13.43;47.64;99796.63;117185;1183;23558;-61
2021/10/13 06:56:54;;;;;;;55.10;42.20;;;;;;;13.45;47.70;99798.35;117283;1186;23560;-61
2021/10/13 06:59:22;;;;;;;53.70;42.20;;;;;;;13.46;47.68;99796.86;117382;1186;23545;-61
2021/10/13 07:01:50;;;;;;;63.50;44.90;;;;;;;13.47;47.60;99797.89;117299;1183;21859;-62
2021/10/13 07:04:19;;;;;;;55.90;44.10;;;;;;;13.48;47.63;99802.45;117267;1182;23679;-61
2021/10/13 07:06:47;;;;;;;58.40;42.90;;;;;;;13.47;47.67;99801.95;117290;1188;21872;-61
2021/10/13 07:09:19;;;;;;;56.10;44.20;;;;;;;13.48;47.72;99794.67;117271;1185;23544;-61
2021/10/13 07:11:51;;;;;;;56.20;43.80;;;;;;;13.49;47.64;99791.50;117311;1186;22628;-61
2021/10/13 07:14:19;;;;;;;62.30;45.20;;;;;;;13.47;47.63;99793.30;117115;1186;21874;-61
2021/10/13 07:16:47;;;;;;;57.90;44.80;;;;;;;13.47;47.76;99789.95;117261;1185;21964;-62
2021/10/13 07:19:16;;;;;;;56.50;44.50;;;;;;;13.46;47.66;99788.59;117433;1185;23557;-62
2021/10/13 07:21:45;;;;;;;62.50;47.90;;;;;;;13.47;47.71;99786.81;117284;1186;21868;-61
2021/10/13 07:24:13;;;;;;;66.90;47.90;;;;;;;13.46;47.79;99784.36;117311;1186;21871;-61
2021/10/13 07:26:44;;;;;;;63.30;48.30;;;;;;;13.46;47.76;99783.51;117279;1185;21985;-62
2021/10/13 07:29:12;;;;;;;66.70;50.30;;;;;;;13.46;47.67;99781.71;117280;1176;21860;-61
2021/10/13 07:31:41;;;;;;;62.60;49.00;;;;;;;13.47;47.82;99782.23;117366;1182;21865;-62
2021/10/13 07:34:09;;;;;;;60.20;48.10;;;;;;;13.48;47.84;99778.66;117325;1185;21873;-60
2021/10/13 07:36:38;;;;;;;65.10;51.40;;;;;;;13.49;47.93;99775.80;117320;1185;23682;-61
2021/10/13 07:39:06;;;;;;;66.90;51.90;;;;;;;13.50;47.83;99776.64;117216;1186;23440;-61
2021/10/13 07:41:37;;;;;;;72.70;53.80;;;;;;;13.52;47.87;99774.98;117326;1185;21877;-61
2021/10/13 07:44:05;;;;;;;75.70;51.50;;;;;;;13.55;47.82;99771.21;117299;1183;23569;-60
2021/10/13 07:46:33;;;;;;;67.70;51.40;;;;;;;13.57;47.86;99770.77;117295;1186;22714;-60
2021/10/13 07:49:01;;;;;;;64.80;52.60;;;;;;;13.60;47.94;99766.80;117316;1183;23547;-60
2021/10/13 07:51:31;;;;;;;64.20;51.70;;;;;;;13.59;47.75;99762.41;117317;1184;23547;-59
2021/10/13 07:53:59;;;;;;;58.60;49.50;;;;;;;13.59;47.84;99759.95;117344;1186;23593;-60
2021/10/13 07:56:28;;;;;;;65.10;51.30;;;;;;;13.59;47.77;99756.80;117328;1182;23557;-61
2021/10/13 07:58:56;;;;;;;61.80;49.80;;;;;;;13.57;47.86;99753.51;117307;1183;23549;-60
2021/10/13 08:01:24;;;;;;;66.30;50.10;;;;;;;13.56;47.87;99748.98;117307;1188;21862;-60
2021/10/13 08:03:54;;;;;;;65.10;51.70;;;;;;;13.55;47.92;99745.11;117339;1182;22831;-60
2021/10/13 08:06:23;;;;;;;63.40;50.70;;;;;;;13.54;47.83;99741.63;117282;1186;24082;-60
2021/10/13 08:08:51;;;;;;;65.00;49.90;;;;;;;13.53;47.70;99738.84;117368;1185;23542;-60
2021/10/13 08:11:23;;;;;;;64.70;51.00;;;;;;;13.52;47.85;99737.98;117342;1183;22094;-61
2021/10/13 08:13:52;;;;;;;67.60;49.70;;;;;;;13.52;47.90;99735.52;117348;1182;22624;-61
2021/10/13 08:16:31;;;;;;;63.80;49.60;;;;;;;13.50;47.86;99731.19;117304;1178;23548;-60
2021/10/13 08:18:59;;;;;;;61.60;49.30;;;;;;;13.47;47.90;99731.97;117418;1185;21858;-60
2021/10/13 08:21:28;;;;;;;60.50;49.30;;;;;;;13.48;48.02;99738.29;117338;1186;23576;-58
2021/10/13 08:23:56;;;;;;;57.50;47.60;;;;;;;13.49;47.89;99741.25;117324;1185;23570;-60
2021/10/13 08:26:24;;;;;;;57.00;46.60;;;;;;;13.48;48.05;99740.77;117323;1186;23466;-60
2021/10/13 08:28:54;;;;;;;60.80;48.50;;;;;;;13.47;47.98;99742.02;117353;1185;21964;-60
2021/10/13 08:31:22;;;;;;;58.90;45.70;;;;;;;13.46;47.99;99749.13;117262;1182;22844;-60
2021/10/13 08:33:52;;;;;;;61.30;47.40;;;;;;;13.43;47.91;99744.66;117218;1185;23644;-60
2021/10/13 08:36:21;;;;;;;58.30;46.30;;;;;;;13.39;47.92;99749.52;117285;1184;23622;-61
2021/10/13 08:38:48;;;;;;;59.00;47.20;;;;;;;13.35;47.97;99748.59;117310;1183;22622;-60
2021/10/13 08:41:17;;;;;;;53.80;43.10;;;;;;;13.32;48.02;99753.97;117337;1185;23534;-59
2021/10/13 08:43:45;;;;;;;62.30;49.10;;;;;;;13.30;47.93;99755.27;117368;1186;23548;-60
2021/10/13 08:46:13;;;;;;;58.50;45.90;;;;;;;13.28;48.09;99758.16;117367;1183;22720;-60
2021/10/13 08:48:42;;;;;;;56.10;45.10;;;;;;;13.26;47.90;99765.63;117357;1185;23560;-61
2021/10/13 08:51:10;;;;;;;57.20;46.60;;;;;;;13.24;48.10;99768.86;117219;1186;21859;-61
2021/10/13 08:53:38;;;;;;;57.00;45.70;;;;;;;13.22;48.12;99767.18;117292;1182;23464;-61
2021/10/13 08:56:06;;;;;;;55.50;43.80;;;;;;;13.21;48.08;99772.48;117280;1184;23544;-60
2021/10/13 08:58:41;;;;;;;59.50;45.60;;;;;;;13.21;48.07;99780.42;117333;1181;23547;-60
2021/10/13 09:01:13;;;;;;;58.70;44.80;;;;;;;13.20;48.05;99779.38;117411;1184;21873;-60
2021/10/13 09:03:44;;;;;;;59.40;45.00;;;;;;;13.20;48.16;99774.11;117297;1186;23442;-60
2021/10/13 09:06:26;;;;;;;59.00;45.00;;;;;;;13.17;48.04;99775.95;117319;1185;21857;-60
2021/10/13 09:08:57;;;;;;;52.80;41.80;;;;;;;13.15;48.05;99779.55;117352;1185;22217;-60
2021/10/13 09:11:47;;;;;;;59.30;42.50;;;;;;;13.15;48.23;99776.55;117337;1185;22010;-60
2021/10/13 09:18:22;;;;;;;49.90;39.40;;;;;;;13.15;48.18;99781.30;117281;1176;23559;-58
2021/10/13 09:20:52;;;;;;;54.50;42.80;;;;;;;13.14;48.20;99780.10;117351;1185;21868;-58
2021/10/13 09:23:28;;;;;;;54.10;41.50;;;;;;;13.14;48.20;99785.73;117332;1182;21850;-60
2021/10/13 09:26:01;;;;;;;49.70;40.00;;;;;;;13.14;48.31;99787.50;117162;1183;21862;-58
2021/10/13 09:28:29;;;;;;;50.30;39.70;;;;;;;13.14;48.22;99787.51;117329;1185;21906;-57
2021/10/13 09:31:15;;;;;;;52.70;41.40;;;;;;;13.19;48.48;99786.81;117360;1184;21868;-58
2021/10/13 09:33:59;;;;;;;50.00;40.60;;;;;;;13.27;48.35;99790.77;117322;1183;21902;-57
2021/10/13 09:36:36;;;;;;;50.30;40.10;;;;;;;13.26;48.04;99793.09;117374;1185;21861;-59
2021/10/13 09:39:09;;;;;;;46.30;37.60;;;;;;;13.24;48.29;99795.10;117265;1185;21863;-58
2021/10/13 09:42:09;;;;;;;48.60;40.50;;;;;;;13.24;48.41;99799.52;117358;1182;21964;-58
2021/10/13 09:45:01;;;;;;;52.10;40.70;;;;;;;13.25;48.22;99799.98;117285;1183;22919;-57
2021/10/13 09:47:32;;;;;;;46.10;37.10;;;;;;;13.25;48.23;99803.71;117107;1184;23573;-58
2021/10/13 09:50:10;;;;;;;44.80;35.70;;;;;;;13.23;48.40;99803.78;117342;1182;22918;-57
2021/10/13 09:52:39;;;;;;;43.10;36.10;;;;;;;13.22;48.34;99803.79;117291;1185;22656;-58
2021/10/13 09:55:09;;;;;;;47.50;36.10;;;;;;;13.22;48.19;99802.74;117306;1186;22657;-57
2021/10/13 09:57:48;;;;;;;44.30;36.10;;;;;;;13.22;48.24;99806.61;117310;1184;23154;-58
2021/10/13 10:00:22;;;;;;;44.90;36.70;;;;;;;13.23;48.40;99808.70;117312;1183;21857;-58
2021/10/13 10:02:57;;;;;;;42.60;35.20;;;;;;;13.24;48.28;99812.73;117285;1182;21956;-58
2021/10/13 10:05:31;;;;;;;43.00;36.10;;;;;;;13.26;48.41;99811.95;117304;1185;21859;-58
2021/10/13 10:08:04;;;;;;;42.10;34.50;;;;;;;13.26;48.42;99811.96;117345;1185;22917;-58
2021/10/13 10:10:36;;;;;;;43.00;35.70;;;;;;;13.24;48.45;99814.14;117367;1186;23548;-58
2021/10/13 10:13:07;;;;;;;43.60;35.10;;;;;;;13.23;48.36;99811.35;117177;1186;22921;-59
2021/10/13 10:15:41;;;;;;;42.10;34.10;;;;;;;13.23;48.30;99818.39;117312;1183;22708;-57
2021/10/13 10:18:26;;;;;;;43.10;35.10;;;;;;;13.23;48.41;99815.23;117229;1184;21860;-57
2021/10/13 10:20:54;;;;;;;45.10;35.50;;;;;;;13.22;48.28;99815.42;117332;1182;22916;-58
2021/10/13 10:23:33;;;;;;;40.60;35.70;;;;;;;13.21;48.30;99817.92;117328;1182;23547;-58
2021/10/13 10:26:20;;;;;;;43.90;36.50;;;;;;;13.19;48.33;99819.93;117336;1184;21986;-58
2021/10/13 10:28:52;;;;;;;42.60;36.00;;;;;;;13.16;48.49;99823.53;117356;1185;21854;-57
2021/10/13 10:31:23;;;;;;;41.00;35.20;;;;;;;13.14;48.39;99820.25;117333;1182;23625;-58
2021/10/13 10:33:52;;;;;;;44.70;35.90;;;;;;;13.14;48.40;99822.02;117270;1183;22900;-58
2021/10/13 10:36:20;;;;;;;45.30;36.40;;;;;;;13.14;48.40;99824.14;117017;1186;24009;-58
2021/10/13 10:38:48;;;;;;;42.20;35.50;;;;;;;13.13;48.46;99829.09;117342;1183;21867;-58
2021/10/13 10:41:17;;;;;;;44.30;35.70;;;;;;;13.14;48.45;99831.89;117445;1182;23662;-57
2021/10/13 10:43:45;;;;;;;45.50;35.70;;;;;;;13.16;48.46;99831.98;117212;1185;23468;-58
2021/10/13 10:46:13;;;;;;;46.00;36.40;;;;;;;13.19;48.59;99829.09;117001;1188;21865;-58
2021/10/13 10:48:46;;;;;;;47.00;37.40;;;;;;;13.19;48.57;99829.10;117082;1186;23550;-57
2021/10/13 10:51:16;;;;;;;43.10;35.00;;;;;;;13.21;48.45;99831.66;117386;1185;23570;-57
2021/10/13 10:53:45;;;;;;;47.10;37.70;;;;;;;13.23;48.27;99833.01;117328;1185;23641;-58
2021/10/13 10:56:24;;;;;;;44.40;37.20;;;;;;;13.20;48.32;99834.18;117281;1185;21859;-57
2021/10/13 10:59:11;;;;;;;45.40;38.00;;;;;;;13.13;48.59;99834.91;117338;1185;23579;-57
2021/10/13 11:02:07;;;;;;;46.70;36.10;;;;;;;13.10;48.52;99834.10;117324;1182;23542;-59
2021/10/13 11:04:36;;;;;;;45.30;36.90;;;;;;;13.08;48.51;99838.58;117338;1185;21855;-57
2021/10/13 11:07:24;;;;;;;45.90;37.60;;;;;;;13.08;48.61;99842.80;117226;1184;21859;-57
2021/10/13 11:10:04;;;;;;;44.00;37.30;;;;;;;13.10;48.72;99844.69;117392;1183;23637;-58
2021/10/13 11:12:49;;;;;;;50.30;39.60;;;;;;;13.11;48.75;99845.19;117274;1185;22922;-58
2021/10/13 11:15:18;;;;;;;45.60;37.00;;;;;;;13.19;48.67;99845.30;117295;1181;22999;-58
2021/10/13 11:17:48;;;;;;;45.40;38.70;;;;;;;13.15;48.75;99844.17;117293;1181;23569;-58
2021/10/13 11:20:19;;;;;;;48.60;38.80;;;;;;;13.14;48.71;99846.14;117300;1182;23560;-58
2021/10/13 11:22:57;;;;;;;46.60;37.40;;;;;;;13.15;48.54;99843.85;117315;1182;23470;-59
2021/10/13 11:25:26;;;;;;;45.90;37.40;;;;;;;13.16;48.70;99844.32;117329;1185;21863;-58
2021/10/13 11:27:58;;;;;;;45.60;37.70;;;;;;;13.18;48.73;99845.85;117360;1183;23577;-57
2021/10/13 11:30:28;;;;;;;48.30;37.70;;;;;;;13.16;48.54;99844.51;117368;1183;21875;-58
2021/10/13 11:32:57;;;;;;;46.70;37.90;;;;;;;13.14;48.72;99850.02;117317;1183;23570;-57